createdAt,value
2022-12-01T00:03:31.902Z,38.45
2022-12-01T00:13:34.357Z,38.00
2022-12-01T00:23:35.872Z,35.57
2022-12-01T00:33:38.308Z,41.28
2022-12-01T00:43:39.876Z,35.70
2022-12-01T00:53:41.455Z,34.97
2022-12-01T01:03:42.972Z,34.90
2022-12-01T01:13:44.468Z,36.00
2022-12-01T01:23:46.047Z,33.00
2022-12-01T01:33:48.159Z,33.00
2022-12-01T01:43:55.889Z,35.17
2022-12-01T01:54:04.120Z,33.47
2022-12-01T02:04:07.183Z,35.63
2022-12-01T02:14:13.901Z,33.40
2022-12-01T02:24:46.156Z,33.10
2022-12-01T02:34:59.138Z,35.40
2022-12-01T02:45:04.532Z,31.65
2022-12-01T02:55:06.414Z,34.47
2022-12-01T03:05:27.861Z,32.95
2022-12-01T03:15:38.135Z,37.40
2022-12-01T03:25:43.441Z,33.70
2022-12-01T03:35:55.921Z,31.58
2022-12-01T03:46:04.467Z,36.93
2022-12-01T03:56:07.634Z,37.47
2022-12-01T04:06:09.157Z,42.73
2022-12-01T04:16:10.691Z,39.07
2022-12-01T04:26:15.774Z,37.33
2022-12-01T04:36:17.560Z,36.67
2022-12-01T04:46:19.069Z,43.43
2022-12-01T04:56:20.678Z,42.47
2022-12-01T05:06:25.452Z,38.53
2022-12-01T05:16:32.083Z,38.45
2022-12-01T05:26:33.862Z,45.40
2022-12-01T05:36:35.407Z,43.00
2022-12-01T05:46:36.889Z,38.08
2022-12-01T05:56:38.392Z,37.73
2022-12-01T06:06:39.936Z,41.13
2022-12-01T06:16:41.509Z,39.27
2022-12-01T06:26:43.021Z,41.73
2022-12-01T06:36:44.509Z,41.58
2022-12-01T06:46:46.029Z,43.27
2022-12-01T06:56:47.565Z,39.30
2022-12-01T07:06:49.276Z,39.40
2022-12-01T07:16:51.146Z,42.63
2022-12-01T07:26:52.692Z,43.37
2022-12-01T07:36:54.199Z,43.30
2022-12-01T07:46:55.691Z,38.77
2022-12-01T07:56:57.186Z,40.05
2022-12-01T08:06:58.668Z,40.97
2022-12-01T08:17:00.429Z,40.77
2022-12-01T08:27:02.019Z,44.13
2022-12-01T08:37:03.551Z,37.83
2022-12-01T08:47:05.035Z,39.53
2022-12-01T08:57:06.754Z,37.05
2022-12-01T09:07:10.447Z,39.73
2022-12-01T09:17:11.961Z,36.08
2022-12-01T09:27:13.488Z,36.23
2022-12-01T09:37:15.021Z,32.93
2022-12-01T09:47:33.793Z,39.53
2022-12-01T09:57:37.754Z,33.23
2022-12-01T10:07:46.319Z,32.47
2022-12-01T10:17:50.908Z,40.03
2022-12-01T10:27:55.291Z,39.03
2022-12-01T10:38:00.560Z,43.03
2022-12-01T10:48:12.401Z,48.77
2022-12-01T10:58:16.928Z,49.73
2022-12-01T11:08:25.169Z,47.07
2022-12-01T11:18:34.422Z,49.20
2022-12-01T11:28:40.083Z,53.22
2022-12-01T11:38:41.764Z,46.17
2022-12-01T11:48:57.830Z,49.83
2022-12-01T11:59:03.019Z,41.93
2022-12-01T12:09:13.293Z,44.20
2022-12-01T12:19:34.372Z,45.05
2022-12-01T12:29:50.150Z,39.27
2022-12-01T12:40:03.213Z,37.50
2022-12-01T12:50:28.223Z,38.30
2022-12-01T13:00:29.962Z,32.73
2022-12-01T13:11:00.072Z,33.05
2022-12-01T13:21:03.977Z,36.53
2022-12-01T13:31:09.089Z,41.77
2022-12-01T13:41:17.961Z,35.30
2022-12-01T13:51:19.588Z,33.13
2022-12-01T14:01:21.533Z,36.60
2022-12-01T14:11:25.447Z,39.40
2022-12-01T14:22:02.965Z,38.73
2022-12-01T14:32:20.136Z,39.93
2022-12-01T14:42:30.753Z,34.97
2022-12-01T14:52:37.228Z,36.42
2022-12-01T15:02:47.885Z,36.23
2022-12-01T15:12:51.530Z,36.33
2022-12-01T15:22:54.128Z,36.90
2022-12-01T15:32:55.886Z,38.53
2022-12-01T15:43:02.595Z,44.42
2022-12-01T15:53:17.793Z,44.93
2022-12-01T16:03:19.478Z,47.53
2022-12-01T16:13:41.629Z,46.53
2022-12-01T16:23:43.241Z,48.43
2022-12-01T16:33:44.813Z,46.53
2022-12-01T16:43:59.447Z,54.50
2022-12-01T16:54:09.300Z,64.67
2022-12-01T17:04:10.827Z,57.65
2022-12-01T17:14:12.396Z,63.30
2022-12-01T17:24:18.735Z,60.57
2022-12-01T17:34:20.664Z,60.13
2022-12-01T17:44:22.432Z,62.77
2022-12-01T17:54:23.949Z,62.95
2022-12-01T18:04:25.532Z,59.10
2022-12-01T18:14:27.096Z,67.50
2022-12-01T18:24:28.621Z,61.78
2022-12-01T18:34:30.111Z,59.87
2022-12-01T18:44:31.661Z,65.93
2022-12-01T18:54:33.190Z,67.10
2022-12-01T19:04:34.800Z,69.23
2022-12-01T19:14:36.444Z,74.40
2022-12-01T19:24:37.970Z,75.87
2022-12-01T19:34:39.494Z,76.03
2022-12-01T19:44:41.033Z,78.03
2022-12-01T19:54:42.546Z,81.63
2022-12-01T20:04:44.135Z,78.32
2022-12-01T20:14:46.188Z,84.53
2022-12-01T20:24:47.951Z,89.37
2022-12-01T20:34:49.797Z,76.43
2022-12-01T20:44:51.665Z,82.10
2022-12-01T20:54:53.433Z,81.77
2022-12-01T21:04:58.835Z,78.93
2022-12-01T21:15:24.856Z,82.77
2022-12-01T21:25:26.363Z,82.87
2022-12-01T21:35:27.853Z,82.93
2022-12-01T21:45:31.083Z,87.27
2022-12-01T21:55:34.445Z,83.65
2022-12-01T22:05:42.172Z,80.67
2022-12-01T22:15:43.735Z,82.60
2022-12-01T22:25:46.844Z,78.78
2022-12-01T22:35:50.333Z,83.80
2022-12-01T22:46:06.889Z,88.30
2022-12-01T22:56:30.552Z,83.63
2022-12-01T23:06:50.589Z,77.40
2022-12-01T23:16:56.481Z,78.13
2022-12-01T23:26:57.966Z,76.17
2022-12-01T23:36:59.468Z,79.10
2022-12-01T23:47:01.311Z,78.20
2022-12-01T23:57:10.782Z,81.23
